Wednesday, August 15, 2018, 7:10 AM EDT
Back to Local

K12N, Aeroflex-andover Airport

Location: Newton, NJ, United States Lat: 41.017
Local Time: 7:10 AM EDT (11:10 GMT) Lon: -74.733
Time Zone: US/Eastern Elev: 583 ft

Show me the last for .
Show Decoded

2018-08-15 06:54 METAR K12N 151054Z AUTO 00000KT 19/19 A2991 RMK AO1 SLP124 T01890189 =
2018-08-15 05:54 METAR K12N 150954Z AUTO 00000KT 18/18 A2990 RMK AO1 SLP118 T01830183 =
2018-08-15 04:54 METAR K12N 150854Z AUTO 00000KT 19/19 A2989 RMK AO1 SLP115 T01890189 53005 =
2018-08-15 03:54 METAR K12N 150754Z AUTO 00000KT 19/19 A2989 RMK AO1 SLP112 T01940194 =
2018-08-15 02:54 METAR K12N 150654Z AUTO 00000KT 19/19 A2987 RMK AO1 SLP109 T01940194 =
2018-08-15 01:54 METAR K12N 150554Z AUTO 18003KT 19/19 A2988 RMK AO1 SLP112 T01940194 10206 20194
                 50002 =
2018-08-15 00:54 METAR K12N 150454Z AUTO 20003KT 20/20 A2989 RMK AO1 SLP113 T02000200 402610194 =
2018-08-14 23:54 METAR K12N 150354Z AUTO 21005KT 20/20 A2988 RMK AO1 SLP110 T02000200 =
2018-08-14 22:54 METAR K12N 150254Z AUTO 00000KT 19/19 A2987 RMK AO1 SLP108 T01940194 50005 =
2018-08-14 21:54 METAR K12N 150154Z AUTO 00000KT 20/20 A2987 RMK AO1 SLP109 T02000200 =
2018-08-14 20:54 METAR K12N 150054Z AUTO VRB04KT 21/21 A2987 RMK AO1 SLP107 T02060206 =
2018-08-14 19:54 METAR K12N 142354Z AUTO 00000KT 21/21 A2986 RMK AO1 SLP104 60010 T02060206 10261
                 20206 51008 =
2018-08-14 18:54 METAR K12N 142254Z AUTO 20004KT 22/21 A2985 RMK AO1 SLP103 T02170206 =
2018-08-14 17:54 METAR K12N 142154Z AUTO VRB04KT 21/21 A2985 RMK AO1 SLP102 P0006 T02110206 =
2018-08-14 16:54 METAR K12N 142054Z AUTO VRB04KT 26/21 A2983 RMK AO1 SLP095 60004 T02560206 55015
                 =
2018-08-14 15:54 METAR K12N 141954Z AUTO VRB04KT 25/21 A2983 RMK AO1 SLP094 T02500211 =
2018-08-14 14:54 METAR K12N 141854Z AUTO 00000KT 23/22 A2986 RMK AO1 SLP104 P0004 T02280217 =
2018-08-14 13:54 METAR K12N 141754Z AUTO 19003KT 21/21 A2988 RMK AO1 SLP111 P0022 60022 T02060206
                 10261 20206 55004 =
2018-08-14 12:54 METAR K12N 141654Z AUTO VRB04KT 24/21 A2988 RMK AO1 SLP109 T02440206 =
2018-08-14 11:54 METAR K12N 141554Z AUTO VRB05KT 26/21 A2988 RMK AO1 SLP110 T02560206 =
2018-08-14 10:54 METAR K12N 141454Z AUTO VRB06KT 24/21 A2989 RMK AO1 SLP114 T02440211 58000 =
2018-08-14 09:54 METAR K12N 141354Z AUTO VRB03KT 23/21 A2989 RMK AO1 SLP114 T02330211 =
2018-08-14 08:54 METAR K12N 141254Z AUTO 22003KT 22/21 A2990 RMK AO1 SLP118 T02220211 =
2018-08-14 07:54 METAR K12N 141154Z AUTO 00000KT 21/21 A2989 RMK AO1 SLP116 70105 T02110211 10211
                 20206 50004 =

Support USWX by starting your Amazon purchase here.